Time;durP1;ratioP1;P1;durP2;ratioP2;P2;SDS_P1;SDS_P2;PMS_P1;PMS_P2;Temp;Humidity;BMP_temperature;BMP_pressure;BME280_temperature;BME280_humidity;BME280_pressure;Samples;Min_cycle;Max_cycle;Signal;HPM_P1;HPM_P2
2021/01/09 00:01:55;;;;;;;15.88;9.50;;;1.10;99.90;;;;;;4973544;28;20031;-81
2021/01/09 00:04:21;;;;;;;14.20;9.48;;;1.10;99.90;;;;;;4974189;28;20037;-81
2021/01/09 00:06:47;;;;;;;13.65;8.48;;;1.00;99.90;;;;;;4974256;28;20082;-82
2021/01/09 00:09:12;;;;;;;19.08;10.13;;;1.00;99.90;;;;;;4975806;28;20023;-82
2021/01/09 00:11:38;;;;;;;17.98;9.70;;;1.10;99.90;;;;;;4974208;28;20499;-82
2021/01/09 00:14:04;;;;;;;16.10;9.93;;;1.00;99.90;;;;;;4974092;28;20026;-82
2021/01/09 00:16:29;;;;;;;13.55;8.75;;;1.00;99.90;;;;;;4974108;28;20026;-82
2021/01/09 00:18:55;;;;;;;14.82;8.88;;;1.10;99.90;;;;;;4975549;28;20133;-82
2021/01/09 00:21:21;;;;;;;15.90;9.85;;;1.10;99.90;;;;;;4974005;28;20117;-82
2021/01/09 00:23:47;;;;;;;13.70;8.70;;;1.20;99.90;;;;;;4975147;28;20023;-82
2021/01/09 00:26:12;;;;;;;13.82;8.48;;;1.20;99.90;;;;;;4973983;28;20387;-82
2021/01/09 00:28:38;;;;;;;14.10;8.10;;;1.20;99.90;;;;;;4973890;28;20488;-82
2021/01/09 00:31:06;;;;;;;12.93;8.98;;;1.30;99.90;;;;;;4975173;28;20026;-82
2021/01/09 00:33:33;;;;;;;12.77;8.23;;;1.30;99.90;;;;;;4973843;28;20045;-81
2021/01/09 00:35:59;;;;;;;13.68;8.07;;;1.40;99.90;;;;;;4973798;28;20065;-81
2021/01/09 00:38:25;;;;;;;14.20;8.07;;;1.40;99.90;;;;;;4975075;28;20030;-81
2021/01/09 00:40:51;;;;;;;13.40;8.20;;;1.40;99.90;;;;;;4973628;28;20073;-81
2021/01/09 00:43:17;;;;;;;16.55;8.57;;;1.30;99.90;;;;;;4973713;28;20019;-81
2021/01/09 00:45:43;;;;;;;12.63;8.63;;;1.20;99.90;;;;;;4973622;28;20026;-81
2021/01/09 00:48:08;;;;;;;14.80;8.18;;;1.20;99.90;;;;;;4974907;28;20061;-81
2021/01/09 00:50:34;;;;;;;12.40;8.32;;;1.20;99.90;;;;;;4975101;28;20378;-81
2021/01/09 00:53:00;;;;;;;13.50;8.88;;;1.30;99.90;;;;;;4973799;28;20529;-81
2021/01/09 00:55:26;;;;;;;14.02;8.40;;;1.40;99.90;;;;;;4973523;28;20056;-81
2021/01/09 00:57:51;;;;;;;12.85;8.75;;;1.30;99.90;;;;;;4974300;28;20039;-81
2021/01/09 01:00:17;;;;;;;12.82;8.10;;;1.30;99.90;;;;;;4973482;28;20081;-81
2021/01/09 01:02:45;;;;;;;13.60;7.80;;;1.30;99.90;;;;;;4974215;28;20118;-81
2021/01/09 01:05:11;;;;;;;13.75;8.10;;;1.40;99.90;;;;;;4974887;28;20027;-81
2021/01/09 01:07:36;;;;;;;13.35;8.13;;;1.50;99.90;;;;;;4973398;28;20027;-81
2021/01/09 01:10:05;;;;;;;13.10;7.82;;;1.30;99.90;;;;;;4973549;28;20078;-81
2021/01/09 01:12:30;;;;;;;12.77;7.97;;;1.30;99.90;;;;;;4973177;28;20023;-81
2021/01/09 01:14:56;;;;;;;14.00;8.63;;;1.30;99.90;;;;;;4973329;28;20027;-81
2021/01/09 01:17:22;;;;;;;13.20;8.05;;;1.40;99.90;;;;;;4974658;28;20031;-81
2021/01/09 01:19:47;;;;;;;12.40;8.75;;;1.40;99.90;;;;;;4974476;28;20418;-82
2021/01/09 01:22:13;;;;;;;14.10;8.25;;;1.30;99.90;;;;;;4973697;28;20054;-81
2021/01/09 01:24:39;;;;;;;14.18;8.57;;;1.20;99.90;;;;;;4973240;28;20034;-81
2021/01/09 01:27:04;;;;;;;12.38;7.97;;;1.10;99.90;;;;;;4974381;28;20031;-81
2021/01/09 01:29:30;;;;;;;14.57;8.07;;;1.10;99.90;;;;;;4973503;28;20023;-81
2021/01/09 01:31:59;;;;;;;13.93;8.38;;;1.10;99.90;;;;;;4973139;28;20019;-81
2021/01/09 01:34:25;;;;;;;15.15;8.40;;;1.10;99.90;;;;;;4973091;28;20038;-81
2021/01/09 01:36:51;;;;;;;11.77;8.15;;;1.10;99.90;;;;;;4973044;28;20026;-81
2021/01/09 01:39:18;;;;;;;12.48;7.88;;;1.20;99.90;;;;;;4973041;28;20107;-81
2021/01/09 01:41:44;;;;;;;13.57;8.10;;;1.30;99.90;;;;;;4974223;28;20078;-81
2021/01/09 01:44:10;;;;;;;13.23;7.85;;;1.30;99.90;;;;;;4972971;28;20027;-82
2021/01/09 01:46:37;;;;;;;12.07;7.82;;;1.40;99.90;;;;;;4973028;28;20069;-82
2021/01/09 01:49:03;;;;;;;15.18;8.30;;;1.30;99.90;;;;;;4972974;28;20059;-81
2021/01/09 01:51:30;;;;;;;11.85;7.70;;;1.30;99.90;;;;;;4973006;28;20070;-81
2021/01/09 01:53:56;;;;;;;12.45;7.32;;;1.30;99.90;;;;;;4972966;28;20035;-82
2021/01/09 01:56:22;;;;;;;12.45;7.68;;;1.40;99.90;;;;;;4972975;28;20041;-82
2021/01/09 01:58:48;;;;;;;15.32;8.00;;;1.40;99.90;;;;;;4973137;28;20027;-81
2021/01/09 02:01:17;;;;;;;15.10;8.93;;;1.30;99.90;;;;;;4973199;28;20027;-82
2021/01/09 02:03:43;;;;;;;13.13;8.10;;;1.30;99.90;;;;;;4972770;28;20027;-82
2021/01/09 02:06:16;;;;;;;12.75;8.52;;;1.20;99.90;;;;;;4972850;28;20034;-82
2021/01/09 02:08:51;;;;;;;11.80;8.10;;;1.10;99.90;;;;;;4972877;28;20055;-81
2021/01/09 02:11:29;;;;;;;12.70;8.30;;;1.20;99.90;;;;;;4972900;28;20026;-81
2021/01/09 02:14:02;;;;;;;14.50;8.82;;;1.00;99.90;;;;;;4974100;28;20046;-81
2021/01/09 02:16:29;;;;;;;14.02;8.15;;;1.00;99.90;;;;;;4972833;28;20027;-82
2021/01/09 02:18:56;;;;;;;13.57;8.68;;;1.00;99.90;;;;;;4972731;28;20166;-82
2021/01/09 02:21:40;;;;;;;13.65;8.43;;;1.20;99.90;;;;;;4973981;28;20031;-81
2021/01/09 02:24:11;;;;;;;13.32;8.60;;;1.20;99.90;;;;;;4973071;28;20023;-81
2021/01/09 02:26:37;;;;;;;11.55;8.00;;;1.10;99.90;;;;;;4977491;28;20025;-81
2021/01/09 02:29:02;;;;;;;12.25;7.88;;;1.20;99.90;;;;;;4976088;28;20031;-82
2021/01/09 02:31:32;;;;;;;14.27;8.00;;;1.20;99.90;;;;;;4977351;28;20154;-82
2021/01/09 02:33:58;;;;;;;15.77;9.40;;;1.20;99.90;;;;;;4976043;28;20054;-82
2021/01/09 02:36:24;;;;;;;14.85;8.45;;;1.10;99.90;;;;;;4975992;28;20090;-82
2021/01/09 02:38:50;;;;;;;15.30;8.55;;;1.10;99.90;;;;;;4975987;28;20034;-82
2021/01/09 02:41:16;;;;;;;15.30;9.05;;;1.10;99.90;;;;;;4975754;28;20406;-82
2021/01/09 02:43:41;;;;;;;15.95;9.05;;;1.10;99.90;;;;;;4977094;28;20113;-82
2021/01/09 02:46:07;;;;;;;14.52;8.38;;;1.20;99.90;;;;;;4975813;28;20511;-81
2021/01/09 02:48:33;;;;;;;14.30;8.10;;;1.10;99.90;;;;;;4975802;28;20026;-82
2021/01/09 02:50:58;;;;;;;13.40;8.52;;;1.10;99.90;;;;;;4976995;28;20029;-82
2021/01/09 02:53:24;;;;;;;18.38;9.38;;;0.90;99.90;;;;;;4977199;28;20034;-82
2021/01/09 02:55:50;;;;;;;14.48;8.90;;;0.90;99.90;;;;;;4975680;28;20483;-81
2021/01/09 02:58:15;;;;;;;13.32;8.40;;;0.90;99.90;;;;;;4975656;28;20470;-81
2021/01/09 03:00:41;;;;;;;12.55;8.80;;;1.00;99.90;;;;;;4975523;28;20490;-81
2021/01/09 03:03:07;;;;;;;13.93;8.93;;;1.10;99.90;;;;;;4975488;28;20390;-81
2021/01/09 03:05:32;;;;;;;13.05;8.05;;;1.10;99.90;;;;;;4975354;28;20027;-81
2021/01/09 03:07:58;;;;;;;12.40;8.63;;;1.10;99.90;;;;;;4975432;28;20030;-81
2021/01/09 03:10:24;;;;;;;11.88;8.10;;;1.10;99.90;;;;;;4975396;28;20022;-81
2021/01/09 03:12:49;;;;;;;13.48;8.80;;;1.20;99.90;;;;;;4976584;28;20031;-82
2021/01/09 03:15:15;;;;;;;15.77;9.30;;;1.20;99.90;;;;;;4975342;28;20031;-81
2021/01/09 03:17:41;;;;;;;13.73;8.50;;;1.10;99.90;;;;;;4975264;28;20035;-82
2021/01/09 03:20:08;;;;;;;15.65;9.13;;;1.20;99.90;;;;;;4975237;28;20037;-82
2021/01/09 03:22:33;;;;;;;14.57;8.90;;;1.10;99.90;;;;;;4975189;28;20058;-82
2021/01/09 03:24:59;;;;;;;12.00;8.52;;;1.00;99.90;;;;;;4976235;28;20117;-82
2021/01/09 03:27:25;;;;;;;17.05;8.30;;;1.00;99.90;;;;;;4975076;28;20034;-81
2021/01/09 03:29:50;;;;;;;14.10;9.27;;;1.20;99.90;;;;;;4975059;28;20022;-81
2021/01/09 03:32:16;;;;;;;12.80;8.35;;;1.00;99.90;;;;;;4975007;28;20023;-82
2021/01/09 03:34:42;;;;;;;13.27;8.95;;;1.00;99.90;;;;;;4974949;28;20030;-81
2021/01/09 03:37:08;;;;;;;15.27;9.27;;;1.20;99.90;;;;;;4974869;28;20027;-82
2021/01/09 03:39:33;;;;;;;14.32;8.75;;;1.30;99.90;;;;;;4976663;28;20050;-82
2021/01/09 03:41:59;;;;;;;15.15;9.73;;;1.30;99.90;;;;;;4974618;28;20051;-82
2021/01/09 03:44:24;;;;;;;16.73;9.77;;;1.30;99.90;;;;;;4974646;28;20390;-81
2021/01/09 03:46:50;;;;;;;12.57;8.48;;;1.10;99.90;;;;;;4974715;28;20033;-81
2021/01/09 03:49:16;;;;;;;16.83;10.05;;;1.20;99.90;;;;;;4974623;28;20023;-82
2021/01/09 03:51:42;;;;;;;11.38;8.13;;;1.00;99.90;;;;;;4975864;28;20034;-82
2021/01/09 03:54:07;;;;;;;14.20;8.70;;;1.10;99.90;;;;;;4974610;28;20030;-81
2021/01/09 03:56:33;;;;;;;15.15;9.43;;;1.20;99.90;;;;;;4974512;28;20379;-81
2021/01/09 03:58:59;;;;;;;14.07;9.15;;;1.20;99.90;;;;;;4974516;28;20026;-82
2021/01/09 04:01:24;;;;;;;15.02;9.13;;;1.10;99.90;;;;;;4975957;28;20030;-82
2021/01/09 04:03:50;;;;;;;18.38;9.77;;;1.10;99.90;;;;;;4974321;28;20482;-81
2021/01/09 04:06:16;;;;;;;18.40;10.90;;;1.10;99.90;;;;;;4974369;28;20033;-82
2021/01/09 04:08:41;;;;;;;18.13;10.18;;;1.00;99.90;;;;;;4974333;28;20039;-82
2021/01/09 04:11:07;;;;;;;14.40;9.65;;;1.00;99.90;;;;;;4974256;28;20054;-82
2021/01/09 04:13:33;;;;;;;17.52;10.95;;;1.00;99.90;;;;;;4974216;28;20026;-82
2021/01/09 04:16:02;;;;;;;16.20;11.27;;;1.10;99.90;;;;;;4974233;28;20038;-81
2021/01/09 04:18:27;;;;;;;16.55;10.00;;;1.00;99.90;;;;;;4990305;28;20027;-82
2021/01/09 04:20:53;;;;;;;15.07;9.32;;;1.00;99.90;;;;;;4974071;28;20026;-82
2021/01/09 04:23:19;;;;;;;14.68;9.57;;;0.90;99.90;;;;;;4974016;28;20027;-82
2021/01/09 04:25:44;;;;;;;15.13;9.27;;;1.10;99.90;;;;;;4973936;28;20027;-81
2021/01/09 04:28:10;;;;;;;14.85;9.15;;;1.20;99.90;;;;;;4974010;28;20069;-81
2021/01/09 04:30:36;;;;;;;16.02;10.02;;;1.30;99.90;;;;;;4975224;28;20027;-82
2021/01/09 04:33:02;;;;;;;14.63;9.45;;;1.20;99.90;;;;;;4974399;28;20030;-82
2021/01/09 04:35:28;;;;;;;17.67;10.13;;;1.20;99.90;;;;;;4973927;28;20023;-82
2021/01/09 04:37:54;;;;;;;15.63;9.80;;;1.20;99.90;;;;;;4973808;28;20031;-82
2021/01/09 04:40:19;;;;;;;14.68;10.13;;;1.20;99.90;;;;;;4973607;28;20050;-82
2021/01/09 04:42:45;;;;;;;14.88;9.75;;;1.10;99.90;;;;;;4973744;28;20030;-82
2021/01/09 04:45:12;;;;;;;15.48;9.60;;;1.10;99.90;;;;;;4973633;28;20026;-82
2021/01/09 04:47:39;;;;;;;16.20;9.55;;;1.30;99.90;;;;;;4974505;28;20033;-82
2021/01/09 04:50:06;;;;;;;16.95;10.45;;;1.10;99.90;;;;;;4973635;28;20061;-82
2021/01/09 04:52:31;;;;;;;15.10;9.93;;;0.90;99.90;;;;;;4973552;28;20094;-82
2021/01/09 04:54:59;;;;;;;17.27;11.73;;;0.80;99.90;;;;;;4973507;28;20023;-81
2021/01/09 04:57:24;;;;;;;15.07;9.88;;;0.90;99.90;;;;;;4974779;28;20027;-82
2021/01/09 04:59:51;;;;;;;14.45;8.98;;;0.80;99.90;;;;;;4974712;28;20033;-82
2021/01/09 05:02:17;;;;;;;14.43;10.05;;;1.00;99.90;;;;;;4974771;28;20029;-82
2021/01/09 05:04:45;;;;;;;14.02;8.60;;;1.20;99.90;;;;;;4973344;28;20031;-81
2021/01/09 05:07:11;;;;;;;14.20;9.68;;;1.20;99.90;;;;;;4973435;28;20047;-82
2021/01/09 05:09:37;;;;;;;14.85;9.25;;;1.20;99.90;;;;;;4973399;28;20037;-82
2021/01/09 05:12:03;;;;;;;14.57;9.38;;;1.30;99.90;;;;;;4973416;28;20114;-82
2021/01/09 05:14:29;;;;;;;19.20;10.82;;;1.40;99.90;;;;;;4973308;28;20404;-82
2021/01/09 05:16:58;;;;;;;13.10;8.63;;;1.30;99.90;;;;;;4973342;28;20053;-82
2021/01/09 05:19:28;;;;;;;13.35;9.02;;;1.30;99.90;;;;;;4974535;28;20061;-81
2021/01/09 05:21:56;;;;;;;14.85;9.55;;;1.30;99.90;;;;;;4974570;28;20027;-82
2021/01/09 05:24:22;;;;;;;16.52;9.90;;;1.20;99.90;;;;;;4974355;28;20031;-82
2021/01/09 05:26:48;;;;;;;17.25;11.20;;;1.20;99.90;;;;;;4974457;28;20463;-82
2021/01/09 05:29:16;;;;;;;17.67;10.35;;;1.30;99.90;;;;;;4973187;28;20031;-81
2021/01/09 05:31:43;;;;;;;15.57;9.93;;;1.20;99.90;;;;;;4973153;28;20097;-82
2021/01/09 05:34:09;;;;;;;15.50;10.20;;;1.20;99.90;;;;;;4973157;28;20066;-82
2021/01/09 05:36:35;;;;;;;15.68;10.02;;;1.10;99.90;;;;;;4973157;28;20058;-81
2021/01/09 05:39:03;;;;;;;14.52;9.73;;;1.10;99.90;;;;;;4974357;28;20031;-82
2021/01/09 05:41:29;;;;;;;17.38;10.75;;;1.20;99.90;;;;;;4972931;28;20069;-82
2021/01/09 05:44:05;;;;;;;14.88;9.93;;;1.10;99.90;;;;;;4972929;28;20117;-82
2021/01/09 05:46:35;;;;;;;16.90;9.85;;;1.10;99.90;;;;;;4974769;28;20046;-82
2021/01/09 05:49:01;;;;;;;17.10;9.90;;;0.90;99.90;;;;;;4973039;28;20109;-81
2021/01/09 05:51:28;;;;;;;18.75;10.57;;;1.10;99.90;;;;;;4972995;28;20387;-82
2021/01/09 05:53:54;;;;;;;16.98;11.25;;;1.10;99.90;;;;;;4972983;28;20027;-82
2021/01/09 05:56:21;;;;;;;17.85;11.00;;;1.00;99.90;;;;;;4989143;28;20475;-82
2021/01/09 05:58:51;;;;;;;17.70;11.68;;;1.00;99.90;;;;;;4972989;28;20475;-81
2021/01/09 06:01:28;;;;;;;19.65;12.35;;;1.10;99.90;;;;;;4978023;28;20042;-81
2021/01/09 06:04:13;;;;;;;18.30;11.80;;;1.00;99.90;;;;;;4976581;28;20023;-81
2021/01/09 06:06:46;;;;;;;17.42;11.05;;;0.90;99.90;;;;;;4993149;28;20023;-82
2021/01/09 06:09:19;;;;;;;20.23;12.75;;;0.90;99.90;;;;;;4976636;28;20027;-81
2021/01/09 06:11:46;;;;;;;21.83;13.40;;;0.90;99.90;;;;;;4976523;28;20538;-81
2021/01/09 06:14:14;;;;;;;21.77;13.18;;;0.80;99.90;;;;;;4976439;28;20514;-81
2021/01/09 06:16:41;;;;;;;19.23;13.05;;;1.00;99.90;;;;;;4977694;28;20030;-81
2021/01/09 06:19:08;;;;;;;23.02;14.07;;;1.00;99.90;;;;;;4976364;28;20027;-82
2021/01/09 06:21:36;;;;;;;20.75;12.20;;;1.00;99.90;;;;;;4976331;28;20031;-81
2021/01/09 06:24:04;;;;;;;24.02;13.48;;;1.00;99.90;;;;;;4976129;28;20495;-81
2021/01/09 06:26:31;;;;;;;18.75;11.48;;;1.20;99.90;;;;;;4976494;28;20065;-81
2021/01/09 06:28:59;;;;;;;23.08;14.52;;;1.20;99.90;;;;;;4976187;28;20527;-82
2021/01/09 06:31:29;;;;;;;22.17;14.40;;;1.20;99.90;;;;;;4976185;28;20037;-82
2021/01/09 06:33:57;;;;;;;19.63;13.15;;;1.20;99.90;;;;;;4976111;28;20390;-82
2021/01/09 06:36:25;;;;;;;22.83;14.00;;;1.20;99.90;;;;;;4976273;28;20363;-82
2021/01/09 06:38:56;;;;;;;23.92;14.95;;;1.30;99.90;;;;;;4976037;28;20030;-82
2021/01/09 06:41:23;;;;;;;22.70;14.90;;;1.20;99.90;;;;;;4975804;28;20043;-82
2021/01/09 06:43:54;;;;;;;22.55;13.27;;;1.10;99.90;;;;;;4976153;28;20117;-82
2021/01/09 06:46:34;;;;;;;23.40;14.50;;;1.10;99.90;;;;;;4975910;28;20033;-82
2021/01/09 06:49:00;;;;;;;24.13;14.05;;;1.30;99.90;;;;;;4975856;28;20031;-82
2021/01/09 06:51:32;;;;;;;32.22;17.80;;;1.30;99.90;;;;;;4975809;28;20114;-82
2021/01/09 06:54:17;;;;;;;27.27;15.15;;;1.30;99.90;;;;;;4991819;28;20037;-82
2021/01/09 06:56:46;;;;;;;26.40;15.32;;;1.20;99.90;;;;;;4977073;28;20431;-82
2021/01/09 06:59:29;;;;;;;23.77;15.70;;;1.30;99.90;;;;;;4975608;28;20027;-82
2021/01/09 07:02:16;;;;;;;25.65;15.80;;;1.30;99.90;;;;;;4976910;28;20051;-82
2021/01/09 07:05:02;;;;;;;24.48;15.70;;;1.20;99.90;;;;;;4976720;28;20034;-82
2021/01/09 07:07:32;;;;;;;23.05;15.15;;;1.20;99.90;;;;;;4975458;28;20027;-82
2021/01/09 07:10:17;;;;;;;34.83;19.20;;;1.30;99.90;;;;;;4975087;28;20027;-82
2021/01/09 07:13:02;;;;;;;30.83;17.02;;;1.30;99.90;;;;;;4975434;28;20123;-81
2021/01/09 07:15:31;;;;;;;30.00;17.13;;;1.20;99.90;;;;;;4976658;28;20081;-81
2021/01/09 07:18:05;;;;;;;35.78;20.20;;;1.30;99.90;;;;;;4975258;28;20486;-82
2021/01/09 07:20:45;;;;;;;31.05;17.48;;;1.20;99.90;;;;;;4975595;28;20023;-82
2021/01/09 07:23:15;;;;;;;26.42;16.88;;;1.20;99.90;;;;;;4975154;28;20438;-82
2021/01/09 07:25:45;;;;;;;30.52;18.13;;;1.30;99.90;;;;;;4976307;28;20031;-82
2021/01/09 07:28:15;;;;;;;30.02;19.25;;;1.30;99.90;;;;;;4975187;28;20487;-82
2021/01/09 07:30:42;;;;;;;31.27;19.23;;;1.40;99.90;;;;;;4976619;28;20046;-82
2021/01/09 07:33:15;;;;;;;28.60;16.95;;;1.30;99.90;;;;;;4974967;28;20027;-82
2021/01/09 07:35:43;;;;;;;31.03;19.20;;;1.40;99.90;;;;;;4975010;28;20030;-82
2021/01/09 07:38:10;;;;;;;28.30;17.90;;;1.30;99.90;;;;;;4975057;28;20038;-82
2021/01/09 07:40:57;;;;;;;30.30;18.13;;;1.20;99.90;;;;;;4974687;28;20051;-84
2021/01/09 07:43:46;;;;;;;30.08;18.70;;;1.20;99.90;;;;;;4974822;28;20474;-82
2021/01/09 07:46:57;;;;;;;29.00;18.27;;;1.30;99.90;;;;;;4976024;28;20029;-82
2021/01/09 07:49:30;;;;;;;31.25;18.45;;;1.20;99.90;;;;;;4970094;28;20039;-82
2021/01/09 07:52:07;;;;;;;30.30;17.88;;;1.20;99.90;;;;;;4974678;28;20047;-82
2021/01/09 07:54:36;;;;;;;32.25;20.45;;;1.10;99.90;;;;;;4975969;28;20427;-82
2021/01/09 07:57:18;;;;;;;44.08;21.23;;;1.20;99.90;;;;;;4975995;28;20030;-82
2021/01/09 07:59:56;;;;;;;38.47;21.88;;;1.20;99.90;;;;;;4976078;28;20470;-82
2021/01/09 08:02:25;;;;;;;36.38;21.45;;;1.20;99.90;;;;;;4990588;28;20596;-82
2021/01/09 08:05:10;;;;;;;40.75;23.60;;;1.30;99.90;;;;;;4974352;28;20027;-81
2021/01/09 08:07:50;;;;;;;36.08;22.55;;;1.30;99.90;;;;;;4990616;28;20541;-81
2021/01/09 08:10:18;;;;;;;39.97;24.65;;;1.20;99.90;;;;;;4974352;28;20019;-82
2021/01/09 08:13:10;;;;;;;39.47;22.05;;;1.20;99.90;;;;;;4975496;28;20050;-81
2021/01/09 08:15:36;;;;;;;38.35;24.23;;;1.10;99.90;;;;;;4974228;28;20126;-81
2021/01/09 08:18:06;;;;;;;38.80;22.08;;;1.10;99.90;;;;;;4974063;28;20038;-82
2021/01/09 08:20:33;;;;;;;37.42;22.17;;;1.20;99.90;;;;;;4974046;28;20125;-81
2021/01/09 08:23:00;;;;;;;42.53;24.80;;;1.30;99.90;;;;;;4974780;28;20034;-82
2021/01/09 08:25:31;;;;;;;39.10;24.35;;;1.30;99.90;;;;;;4973971;28;20394;-82
2021/01/09 08:28:00;;;;;;;39.08;22.50;;;1.40;99.90;;;;;;4975266;28;20023;-81
2021/01/09 08:30:32;;;;;;;44.75;24.55;;;1.40;99.90;;;;;;4973914;28;20034;-82
2021/01/09 08:33:12;;;;;;;50.10;27.98;;;1.40;99.90;;;;;;4973960;28;20019;-81
2021/01/09 08:35:49;;;;;;;43.15;24.38;;;1.40;99.90;;;;;;4975113;28;20053;-81
2021/01/09 08:38:15;;;;;;;45.78;26.95;;;1.30;99.90;;;;;;4974509;28;20541;-78
2021/01/09 08:40:42;;;;;;;51.58;28.50;;;1.30;99.90;;;;;;4973524;28;20138;-82
2021/01/09 08:43:12;;;;;;;56.25;31.20;;;1.20;99.90;;;;;;4973623;28;20054;-83
2021/01/09 08:45:52;;;;;;;52.95;27.67;;;1.20;99.90;;;;;;4973614;28;20038;-82
2021/01/09 08:48:22;;;;;;;58.95;31.42;;;1.20;99.90;;;;;;4975085;28;20428;-82
2021/01/09 08:51:02;;;;;;;54.58;29.38;;;1.20;99.90;;;;;;4973926;28;20116;-82
2021/01/09 08:53:33;;;;;;;55.13;30.05;;;1.20;99.90;;;;;;4973572;28;20031;-82
2021/01/09 08:56:04;;;;;;;55.30;30.70;;;1.20;99.90;;;;;;4973592;28;20033;-82
2021/01/09 08:58:31;;;;;;;58.08;32.05;;;1.30;99.90;;;;;;4973695;28;20121;-84
2021/01/09 09:01:01;;;;;;;51.55;29.65;;;1.30;99.90;;;;;;4973317;28;20078;-84
2021/01/09 09:03:28;;;;;;;54.80;29.45;;;1.30;99.90;;;;;;4973384;28;20095;-83
2021/01/09 09:05:55;;;;;;;51.33;28.60;;;1.40;99.90;;;;;;4974404;28;20023;-82
2021/01/09 09:08:24;;;;;;;48.90;28.15;;;1.50;99.90;;;;;;4973309;28;20023;-83
2021/01/09 09:10:50;;;;;;;43.33;25.40;;;1.40;99.90;;;;;;4973230;28;20391;-83
2021/01/09 09:13:17;;;;;;;50.05;27.45;;;1.40;99.90;;;;;;4973256;28;20019;-82
2021/01/09 09:15:43;;;;;;;47.58;27.42;;;1.50;99.90;;;;;;4973247;28;20031;-82
2021/01/09 09:18:12;;;;;;;47.67;26.63;;;1.50;99.90;;;;;;4974526;28;20088;-83
2021/01/09 09:20:44;;;;;;;41.65;25.92;;;1.50;99.90;;;;;;4973299;28;20058;-82
2021/01/09 09:23:23;;;;;;;42.05;24.67;;;1.50;99.90;;;;;;4973272;28;20034;-82
2021/01/09 09:26:10;;;;;;;43.33;24.38;;;1.40;99.90;;;;;;4973198;28;20034;-83
2021/01/09 09:28:43;;;;;;;39.78;23.80;;;1.50;99.90;;;;;;4964054;28;20178;-83
2021/01/09 09:31:26;;;;;;;42.67;23.70;;;1.50;99.90;;;;;;4973575;28;20019;-83
2021/01/09 09:33:58;;;;;;;42.67;23.75;;;1.50;99.90;;;;;;4975029;28;20525;-83
2021/01/09 09:36:24;;;;;;;41.35;24.45;;;1.70;99.90;;;;;;4977116;28;20051;-83
2021/01/09 09:38:50;;;;;;;40.83;23.65;;;1.70;99.90;;;;;;4976970;28;20053;-82
2021/01/09 09:41:16;;;;;;;46.40;25.02;;;1.60;99.90;;;;;;4976959;28;20042;-83
2021/01/09 09:43:56;;;;;;;42.30;24.63;;;1.70;99.90;;;;;;4976791;28;20085;-83
2021/01/09 09:46:24;;;;;;;39.38;24.13;;;1.70;99.90;;;;;;4976900;28;20031;-83
2021/01/09 09:48:49;;;;;;;42.28;22.95;;;1.70;99.90;;;;;;4978105;28;20023;-83
2021/01/09 09:51:16;;;;;;;41.22;24.40;;;1.80;99.90;;;;;;4976746;28;20026;-83
2021/01/09 09:53:56;;;;;;;40.67;24.52;;;1.80;99.90;;;;;;4978080;28;20526;-83
2021/01/09 09:56:23;;;;;;;40.88;23.98;;;1.90;99.90;;;;;;4977465;28;20034;-83
2021/01/09 09:59:06;;;;;;;41.08;23.33;;;1.80;99.90;;;;;;4976721;28;20155;-83
2021/01/09 10:01:35;;;;;;;36.30;21.90;;;1.80;99.90;;;;;;4976637;28;20522;-83
2021/01/09 10:04:02;;;;;;;34.53;22.38;;;1.70;99.90;;;;;;4977031;28;20026;-83
2021/01/09 10:06:39;;;;;;;35.85;22.70;;;1.60;99.90;;;;;;4976463;28;20420;-83
2021/01/09 10:09:17;;;;;;;37.03;21.92;;;1.70;99.90;;;;;;4976403;28;20047;-83
2021/01/09 10:11:43;;;;;;;37.60;22.27;;;1.90;99.90;;;;;;4976415;28;20158;-83
2021/01/09 10:14:09;;;;;;;34.92;21.75;;;1.90;99.90;;;;;;4976328;28;20027;-83
2021/01/09 10:16:35;;;;;;;36.25;22.88;;;1.80;99.90;;;;;;4976306;28;20030;-83
2021/01/09 10:19:00;;;;;;;33.30;21.45;;;2.00;99.90;;;;;;4976304;28;20475;-83
2021/01/09 10:21:30;;;;;;;33.97;20.27;;;2.00;99.90;;;;;;4976313;28;20105;-79
2021/01/09 10:23:57;;;;;;;42.00;20.85;;;2.00;99.90;;;;;;4977560;28;20104;-81
2021/01/09 10:26:29;;;;;;;33.55;21.02;;;1.80;99.90;;;;;;4977706;28;20494;-81
2021/01/09 10:28:56;;;;;;;36.05;20.67;;;1.60;99.90;;;;;;4976253;28;20120;-81
2021/01/09 10:31:33;;;;;;;36.40;20.70;;;1.60;99.90;;;;;;4977635;28;20022;-82
2021/01/09 10:34:00;;;;;;;34.83;20.80;;;1.40;99.90;;;;;;4976410;28;20031;-81
2021/01/09 10:36:31;;;;;;;36.03;21.65;;;1.20;99.90;;;;;;4976185;28;20031;-82
2021/01/09 10:38:57;;;;;;;38.78;21.65;;;1.20;99.90;;;;;;4976234;28;20089;-82
2021/01/09 10:41:24;;;;;;;36.13;21.75;;;1.10;99.90;;;;;;4975897;28;20067;-81
2021/01/09 10:43:50;;;;;;;37.05;21.17;;;1.00;99.90;;;;;;4976076;28;20033;-82
2021/01/09 10:46:28;;;;;;;37.22;21.27;;;1.00;99.90;;;;;;4976502;28;20035;-82
2021/01/09 10:48:54;;;;;;;39.72;21.30;;;0.80;99.90;;;;;;4975885;28;20533;-82
2021/01/09 10:51:22;;;;;;;36.00;21.45;;;0.80;99.90;;;;;;4975766;28;20022;-81
2021/01/09 10:53:48;;;;;;;42.55;22.50;;;0.90;99.90;;;;;;4975679;28;20022;-82
2021/01/09 10:56:15;;;;;;;36.13;20.75;;;0.90;99.90;;;;;;4977067;28;20045;-80
2021/01/09 10:58:41;;;;;;;37.72;20.60;;;0.80;99.90;;;;;;4975572;28;20074;-82
2021/01/09 11:01:08;;;;;;;33.45;19.23;;;0.90;99.90;;;;;;4975546;28;20035;-83
2021/01/09 11:03:34;;;;;;;37.50;20.42;;;1.20;99.90;;;;;;4975522;28;20085;-83
2021/01/09 11:06:00;;;;;;;29.13;17.73;;;1.40;99.90;;;;;;4975397;28;20023;-82
2021/01/09 11:08:27;;;;;;;29.92;18.85;;;1.50;99.90;;;;;;4975533;28;20026;-84
2021/01/09 11:10:56;;;;;;;28.95;18.58;;;1.70;99.90;;;;;;4975737;28;20410;-84
2021/01/09 11:13:22;;;;;;;29.27;18.45;;;1.70;99.90;;;;;;4976994;28;20058;-84
2021/01/09 11:15:49;;;;;;;38.50;21.40;;;1.60;99.90;;;;;;4975679;28;20038;-84
2021/01/09 11:18:16;;;;;;;27.63;17.25;;;1.60;99.90;;;;;;4976815;28;20109;-83
2021/01/09 11:20:50;;;;;;;29.58;17.15;;;1.70;99.90;;;;;;4975232;28;20033;-84
2021/01/09 11:23:16;;;;;;;;;;;1.80;99.90;;;;;;4975580;28;20027;-84
2021/01/09 11:25:46;;;;;;;27.30;15.85;;;1.80;99.90;;;;;;4975093;28;19925;-84
2021/01/09 11:28:12;;;;;;;36.20;20.73;;;1.80;99.90;;;;;;4975432;28;20023;-84
2021/01/09 11:30:40;;;;;;;32.25;17.88;;;1.90;99.90;;;;;;4975061;28;20372;-84
2021/01/09 11:33:06;;;;;;;29.02;18.55;;;2.00;99.90;;;;;;4976282;28;20019;-84
2021/01/09 11:35:33;;;;;;;25.92;16.23;;;1.90;99.90;;;;;;4976314;28;20027;-84
2021/01/09 11:37:59;;;;;;;26.73;16.40;;;1.80;99.90;;;;;;4976273;28;20031;-83
2021/01/09 11:40:26;;;;;;;27.27;16.77;;;2.00;99.90;;;;;;4974724;28;20402;-84
2021/01/09 11:42:52;;;;;;;28.52;17.25;;;2.00;99.90;;;;;;4976149;28;20027;-84
2021/01/09 11:45:19;;;;;;;25.48;15.90;;;2.10;99.90;;;;;;4974787;28;20038;-84
2021/01/09 11:47:45;;;;;;;27.52;16.15;;;2.10;99.90;;;;;;4974741;28;20030;-84
2021/01/09 11:50:12;;;;;;;23.83;14.85;;;2.60;99.90;;;;;;4974788;28;20023;-84
2021/01/09 11:52:38;;;;;;;22.42;14.60;;;3.20;99.90;;;;;;4974599;28;20023;-84
2021/01/09 11:55:05;;;;;;;23.85;14.43;;;3.10;99.90;;;;;;4974648;28;20125;-84
2021/01/09 11:57:31;;;;;;;19.83;12.85;;;3.00;99.90;;;;;;4974772;28;20027;-84
2021/01/09 11:59:57;;;;;;;23.92;14.02;;;3.80;99.90;;;;;;4975354;28;20035;-85
2021/01/09 12:02:23;;;;;;;20.10;13.30;;;4.60;99.90;;;;;;4974476;28;20549;-85
2021/01/09 12:04:48;;;;;;;17.65;11.90;;;4.60;99.90;;;;;;4974368;28;20058;-85
2021/01/09 12:07:14;;;;;;;17.95;11.75;;;5.50;99.90;;;;;;4974369;28;20038;-84
2021/01/09 12:09:40;;;;;;;19.95;11.45;;;6.00;99.90;;;;;;4974389;28;20031;-83
2021/01/09 12:12:06;;;;;;;22.60;13.02;;;6.00;99.90;;;;;;4974253;28;20023;-84
2021/01/09 12:14:33;;;;;;;17.05;10.38;;;6.40;99.90;;;;;;4974158;28;20034;-84
2021/01/09 12:17:02;;;;;;;19.48;11.75;;;7.00;99.90;;;;;;4974235;28;20469;-84
2021/01/09 12:19:28;;;;;;;19.92;12.35;;;7.20;99.90;;;;;;4974051;28;20037;-84
2021/01/09 12:21:55;;;;;;;21.13;12.77;;;7.30;99.90;;;;;;4975459;28;20031;-84
2021/01/09 12:24:21;;;;;;;25.17;13.20;;;7.20;99.90;;;;;;4974041;28;20026;-84
2021/01/09 12:26:53;;;;;;;20.33;12.85;;;7.40;99.90;;;;;;4975697;28;20110;-83
2021/01/09 12:29:20;;;;;;;20.17;12.65;;;7.30;99.90;;;;;;4990473;28;20030;-83
2021/01/09 12:31:45;;;;;;;17.45;11.80;;;8.20;99.90;;;;;;4973965;28;20031;-86
2021/01/09 12:34:12;;;;;;;20.42;11.82;;;8.50;99.90;;;;;;4973894;28;20046;-82
2021/01/09 12:36:38;;;;;;;20.60;13.50;;;8.20;99.90;;;;;;4990110;28;20033;-82
2021/01/09 12:39:05;;;;;;;19.33;12.98;;;6.70;99.90;;;;;;4973886;28;20550;-82
2021/01/09 12:41:35;;;;;;;22.88;14.98;;;5.30;99.90;;;;;;4974958;28;20053;-83
2021/01/09 12:44:01;;;;;;;20.40;13.63;;;4.40;99.90;;;;;;4973632;28;20114;-83
2021/01/09 12:46:43;;;;;;;22.52;14.35;;;4.10;99.90;;;;;;4973841;28;20027;-82
2021/01/09 12:49:11;;;;;;;24.65;15.10;;;3.60;99.90;;;;;;4973793;28;20031;-84